Christos Xliii — SVA7832 — position and weather

sailwx.info

Track history (hours):
 
Tides and Currents Weather Stations Pressure Air Temp Water Temp Dewpoint Dewpoint Depression Visibility Wind Speed Wind Dir Waves Ship Positions

Christos Xliii

Last reported at 2017-Nov-17 06:26 UTC. Time now 2017-Nov-17 21:27 UTC.
Position N 37°58' E 023°33'.

; draft 4.3 m.

Type: Tug. MMSI: 241532000.

Date/timePositionNaut miles runAvg speedWind from/ knotsBaromVisibWave heightAir tempDewpointWater temp
2017-Nov-17 06:26N 37°58' E 023°33'0 0.0
2017-Nov-17 06:00N 37°58' E 023°33'0 0.0
2017-Nov-17 05:30N 37°58' E 023°33'0 0.0
2017-Nov-17 05:00N 37°58' E 023°33'0 0.0
2017-Nov-17 04:30N 37°58' E 023°33'0 0.0
2017-Nov-17 04:00N 37°58' E 023°33'0 0.0
2017-Nov-17 03:30N 37°58' E 023°33'0 0.0
2017-Nov-17 03:00N 37°58' E 023°33'0 0.0
2017-Nov-17 02:30N 37°58' E 023°33'0 0.0
2017-Nov-17 02:00N 37°58' E 023°33'0 0.0
2017-Nov-17 01:30N 37°58' E 023°33'0 0.0
2017-Nov-17 01:00N 37°58' E 023°33'0 0.0
2017-Nov-17 00:30N 37°58' E 023°33'0 0.0
2017-Nov-17 00:00N 37°58' E 023°33'0 0.0
2017-Nov-16 23:30N 37°58' E 023°33'0 0.0
2017-Nov-16 23:00N 37°58' E 023°33'0 0.0
2017-Nov-16 22:30N 37°58' E 023°33'0 0.0
2017-Nov-16 22:00N 37°58' E 023°33'0 0.0
2017-Nov-16 21:30N 37°58' E 023°33'0 0.0
2017-Nov-16 21:00N 37°58' E 023°33'0 0.0
2017-Nov-16 20:30N 37°58' E 023°33'0 0.0
2017-Nov-16 20:01N 37°58' E 023°33'0 0.0
2017-Nov-16 19:30N 37°58' E 023°33'0 0.0
2017-Nov-16 19:00N 37°58' E 023°33'0 0.0
2017-Nov-16 18:30N 37°58' E 023°33'0 0.0
2017-Nov-16 18:00N 37°58' E 023°33'0 0.0
2017-Nov-16 17:30N 37°58' E 023°33'0 0.0
2017-Nov-16 17:00N 37°58' E 023°33'0 0.0
2017-Nov-16 16:30N 37°58' E 023°33'0 0.0
2017-Nov-16 16:00N 37°58' E 023°33'0 0.0
2017-Nov-16 15:30N 37°58' E 023°33'0 0.0
2017-Nov-16 15:00N 37°58' E 023°33'0 0.0
2017-Nov-16 14:30N 37°58' E 023°33'0 0.0
2017-Nov-16 14:00N 37°58' E 023°33'0 0.0
2017-Nov-16 13:30N 37°58' E 023°33'0 0.0
2017-Nov-16 13:00N 37°58' E 023°33'0 0.0
2017-Nov-16 12:30N 37°58' E 023°33'0 0.0
2017-Nov-15 14:11N 37°57' E 023°33'0 0.7
2017-Nov-15 14:00N 37°58' E 023°33'0 0.3
2017-Nov-15 13:30N 37°58' E 023°33'0 0.2
2017-Nov-15 13:00N 37°58' E 023°33'0 0.1
2017-Nov-15 12:30N 37°58' E 023°33'0 0.0
2017-Nov-15 12:00N 37°58' E 023°33'0 0.0
2017-Nov-15 11:30N 37°58' E 023°33'0 0.0
2017-Nov-15 11:00N 37°58' E 023°33'2 4.3
2017-Nov-15 10:30N 37°57' E 023°36'0 0.1
2017-Nov-15 10:00N 37°57' E 023°36'0 0.3
2017-Nov-15 09:30N 37°57' E 023°36'0 0.9
2017-Nov-15 09:00N 37°57' E 023°35'2 3.3
2017-Nov-15 08:30N 37°58' E 023°33'0 0.1
2017-Nov-15 08:00N 37°58' E 023°33'0 0.4
2017-Nov-15 07:30N 37°58' E 023°33'0 0.0
2017-Nov-15 07:00N 37°58' E 023°33'0 0.0
2017-Nov-15 06:30N 37°58' E 023°33'0 0.0
2017-Nov-15 06:00N 37°58' E 023°33'0 0.0
2017-Nov-15 05:30N 37°58' E 023°33'0 0.0
2017-Nov-15 05:00N 37°58' E 023°33'0 0.0
2017-Nov-14 11:00N 37°58' E 023°33'0 0.0
2017-Nov-14 10:30N 37°58' E 023°33'1 1.6
2017-Nov-14 10:00N 37°57' E 023°34'1 1.5
2017-Nov-14 09:30N 37°57' E 023°35'2 3.3
2017-Nov-14 09:00N 37°56' E 023°35'2 4.8
2017-Nov-14 08:30N 37°57' E 023°33'0 0.4
2017-Nov-14 08:00N 37°58' E 023°33'0 0.0
2017-Nov-14 07:30N 37°58' E 023°33'0 0.0
2017-Nov-14 07:00N 37°58' E 023°33'0 0.0
2017-Nov-14 06:30N 37°58' E 023°33'3 5.4
2017-Nov-14 06:00N 37°57' E 023°37'1 2.5
2017-Nov-14 05:30N 37°56' E 023°38'0 0.0
2017-Nov-14 05:00N 37°56' E 023°38'1 2.9
2017-Nov-14 04:30N 37°57' E 023°36'1 1.1
2017-Nov-14 04:00N 37°57' E 023°36'0 0.0
2017-Nov-14 03:30N 37°57' E 023°36'0 0.0
2017-Nov-14 03:00N 37°57' E 023°36'0 0.0
2017-Nov-14 02:30N 37°57' E 023°36'0 0.0
2017-Nov-14 02:00N 37°57' E 023°36'0 0.0
2017-Nov-14 01:30N 37°57' E 023°36'0 0.0
2017-Nov-14 01:00N 37°57' E 023°36'0 0.0
2017-Nov-14 00:30N 37°57' E 023°36'0 0.0
2017-Nov-14 00:00N 37°57' E 023°36'0 0.0
2017-Nov-13 23:30N 37°57' E 023°36'0 0.0
2017-Nov-13 23:00N 37°57' E 023°36'0 0.0
2017-Nov-13 22:30N 37°57' E 023°36'0 0.0
2017-Nov-13 22:00N 37°57' E 023°36'  
2017-Nov-10 12:53N 37°57' E 023°34'1 2.5
2017-Nov-10 12:30N 37°57' E 023°35'2 3.4
2017-Nov-10 12:01N 37°55' E 023°36'2 3.5
2017-Nov-10 11:30N 37°56' E 023°34'0 0.2
2017-Nov-10 11:00N 37°56' E 023°34'0 0.0
2017-Nov-10 10:30N 37°56' E 023°34'0 0.0
2017-Nov-10 10:01N 37°56' E 023°34'0 0.0
2017-Nov-10 09:30N 37°56' E 023°34'0 0.0
2017-Nov-10 09:00N 37°56' E 023°34'0 0.0
2017-Nov-10 08:30N 37°56' E 023°34'0 0.0
2017-Nov-10 08:01N 37°56' E 023°34'0 0.0
2017-Nov-10 07:30N 37°56' E 023°34'0 0.0
2017-Nov-10 07:00N 37°56' E 023°34'0 0.0
2017-Nov-10 06:30N 37°56' E 023°34'0 0.0
2017-Nov-10 06:00N 37°56' E 023°34'0 0.0
2017-Nov-10 05:30N 37°56' E 023°34'0 0.0
2017-Nov-10 05:01N 37°56' E 023°34'0 0.0
2017-Nov-10 04:30N 37°56' E 023°34'0 0.0
2017-Nov-10 04:00N 37°56' E 023°34'0 0.0
2017-Nov-10 03:30N 37°56' E 023°34'0 0.0
2017-Nov-10 03:00N 37°56' E 023°34'0 0.0
2017-Nov-10 02:30N 37°56' E 023°34'0 0.0
2017-Nov-10 02:00N 37°56' E 023°34'0 0.0
2017-Nov-10 01:30N 37°56' E 023°34'0 0.0
2017-Nov-10 01:00N 37°56' E 023°34'0 0.0
2017-Nov-10 00:31N 37°56' E 023°34'0 0.0
2017-Nov-10 00:00N 37°56' E 023°34'0 0.0
2017-Nov-09 23:30N 37°56' E 023°34'0 0.0
2017-Nov-09 23:01N 37°56' E 023°34'0 0.0
2017-Nov-09 22:30N 37°56' E 023°34'0 0.0
2017-Nov-09 22:00N 37°56' E 023°34'0 0.0
2017-Nov-09 21:31N 37°56' E 023°34'0 0.0
2017-Nov-09 21:01N 37°56' E 023°34'0 0.0
2017-Nov-09 20:31N 37°56' E 023°34'0 0.0
2017-Nov-09 20:01N 37°56' E 023°34'0 0.0
2017-Nov-09 19:30N 37°56' E 023°34'0 0.0
2017-Nov-09 19:01N 37°56' E 023°34'0 0.0
2017-Nov-09 18:30N 37°56' E 023°34'0 0.0
2017-Nov-09 18:00N 37°56' E 023°34'0 0.0
2017-Nov-09 17:30N 37°56' E 023°34'0 0.0
2017-Nov-09 17:00N 37°56' E 023°34'0 0.0
2017-Nov-09 16:31N 37°56' E 023°34'0 0.0
2017-Nov-09 16:01N 37°56' E 023°34'0 0.0
2017-Nov-09 15:30N 37°56' E 023°34'0 0.0
2017-Nov-09 15:01N 37°56' E 023°34'0 0.0
2017-Nov-09 14:30N 37°56' E 023°34'0 0.0
2017-Nov-09 14:00N 37°56' E 023°34'0 0.0
2017-Nov-09 13:30N 37°56' E 023°34'0 0.0
2017-Nov-09 13:00N 37°56' E 023°34'0 0.0
2017-Nov-09 12:31N 37°56' E 023°34'0 0.0
2017-Nov-09 12:00N 37°56' E 023°34'0 0.0
2017-Nov-09 11:30N 37°56' E 023°34'0 0.0
2017-Nov-09 11:00N 37°56' E 023°34'0 0.1
2017-Nov-09 10:30N 37°56' E 023°34'1 2.9
2017-Nov-09 10:00N 37°58' E 023°34'0 0.0
2017-Nov-09 09:31N 37°58' E 023°34'3 5.5
2017-Nov-09 09:00N 38°00' E 023°33'2 4.1
2017-Nov-09 08:31N 38°01' E 023°36'0 0.0
2017-Nov-09 08:01N 38°01' E 023°36'0 0.0
2017-Nov-09 07:30N 38°01' E 023°36'4 7.7
2017-Nov-09 07:00N 37°58' E 023°33'1 1.9
2017-Nov-09 06:30N 37°57' E 023°34'0 0.3
2017-Nov-09 06:01N 37°58' E 023°34'3 6.9
2017-Nov-09 05:30N 37°56' E 023°38'0 0.5
2017-Nov-09 05:00N 37°56' E 023°38'1 1.6
2017-Nov-09 04:30N 37°56' E 023°37'3 5.2
2017-Nov-09 04:00N 37°57' E 023°34'1 1.0
2017-Nov-09 03:30N 37°58' E 023°34'0 0.0
2017-Nov-07 21:10N 37°58' E 023°34'1 3.9
2017-Nov-07 21:00N 37°58' E 023°33'2 3.8
2017-Nov-07 20:30N 37°57' E 023°35'0 0.7
2017-Nov-07 20:00N 37°57' E 023°35'1 2.6
2017-Nov-07 19:31N 37°58' E 023°34'0 0.0
2017-Nov-07 19:00N 37°58' E 023°34'0 0.0
2017-Nov-07 18:30N 37°58' E 023°34'0 0.0
2017-Nov-07 18:01N 37°58' E 023°34'0 0.0
2017-Nov-07 17:30N 37°58' E 023°34'0 0.0
2017-Nov-07 17:00N 37°58' E 023°34'0 0.0
2017-Nov-07 16:30N 37°58' E 023°34'0 0.0
2017-Nov-07 16:00N 37°58' E 023°34'0 0.0
2017-Nov-07 15:30N 37°58' E 023°34'0 0.0
2017-Nov-07 15:01N 37°58' E 023°34'1 2.2
2017-Nov-07 14:30N 37°57' E 023°35'1 2.3
2017-Nov-07 14:00N 37°58' E 023°34'0 0.0
2017-Nov-07 13:31N 37°58' E 023°34'0 0.0
2017-Nov-07 13:00N 37°58' E 023°34'0 0.5
2017-Nov-07 12:31N 37°58' E 023°33'0 0.0
2017-Nov-07 12:00N 37°58' E 023°33'0 0.0
2017-Nov-07 11:30N 37°58' E 023°33'0 0.0
2017-Nov-07 11:00N 37°58' E 023°33'1 1.3
2017-Nov-07 10:30N 37°57' E 023°34'2 3.6
2017-Nov-07 10:00N 37°55' E 023°35'1 2.4
2017-Nov-07 09:30N 37°54' E 023°34'0 0.8
2017-Nov-07 09:00N 37°54' E 023°34'1 2.0
2017-Nov-07 08:31N 37°55' E 023°34'3 5.3
2017-Nov-07 08:01N 37°58' E 023°34'0 0.0
2017-Nov-07 07:30N 37°58' E 023°34'0 0.0
2017-Nov-07 07:00N 37°58' E 023°34'0 0.0
2017-Nov-07 06:30N 37°58' E 023°34'  
Track history (hours):
 
Tides and Currents Weather Stations Pressure Air Temp Water Temp Dewpoint Dewpoint Depression Visibility Wind Speed Wind Dir Waves Ship Positions

Christos Xliii

Last reported at 2017-Nov-17 06:26 UTC. Time now 2017-Nov-17 21:27 UTC.
Position N 37°58' E 023°33'.

; draft 4.3 m.

Type: Tug. MMSI: 241532000.

Date/timePositionNaut miles runAvg speedWind from/ knotsBaromVisibWave heightAir tempDewpointWater temp
2017-Nov-17 06:26N 37°58' E 023°33'0 0.0
2017-Nov-17 06:00N 37°58' E 023°33'0 0.0
2017-Nov-17 05:30N 37°58' E 023°33'0 0.0
2017-Nov-17 05:00N 37°58' E 023°33'0 0.0
2017-Nov-17 04:30N 37°58' E 023°33'0 0.0
2017-Nov-17 04:00N 37°58' E 023°33'0 0.0
2017-Nov-17 03:30N 37°58' E 023°33'0 0.0
2017-Nov-17 03:00N 37°58' E 023°33'0 0.0
2017-Nov-17 02:30N 37°58' E 023°33'0 0.0
2017-Nov-17 02:00N 37°58' E 023°33'0 0.0
2017-Nov-17 01:30N 37°58' E 023°33'0 0.0
2017-Nov-17 01:00N 37°58' E 023°33'0 0.0
2017-Nov-17 00:30N 37°58' E 023°33'0 0.0
2017-Nov-17 00:00N 37°58' E 023°33'0 0.0
2017-Nov-16 23:30N 37°58' E 023°33'0 0.0
2017-Nov-16 23:00N 37°58' E 023°33'0 0.0
2017-Nov-16 22:30N 37°58' E 023°33'0 0.0
2017-Nov-16 22:00N 37°58' E 023°33'0 0.0
2017-Nov-16 21:30N 37°58' E 023°33'0 0.0
2017-Nov-16 21:00N 37°58' E 023°33'0 0.0
2017-Nov-16 20:30N 37°58' E 023°33'0 0.0
2017-Nov-16 20:01N 37°58' E 023°33'0 0.0
2017-Nov-16 19:30N 37°58' E 023°33'0 0.0
2017-Nov-16 19:00N 37°58' E 023°33'0 0.0
2017-Nov-16 18:30N 37°58' E 023°33'0 0.0
2017-Nov-16 18:00N 37°58' E 023°33'0 0.0
2017-Nov-16 17:30N 37°58' E 023°33'0 0.0
2017-Nov-16 17:00N 37°58' E 023°33'0 0.0
2017-Nov-16 16:30N 37°58' E 023°33'0 0.0
2017-Nov-16 16:00N 37°58' E 023°33'0 0.0
2017-Nov-16 15:30N 37°58' E 023°33'0 0.0
2017-Nov-16 15:00N 37°58' E 023°33'0 0.0
2017-Nov-16 14:30N 37°58' E 023°33'0 0.0
2017-Nov-16 14:00N 37°58' E 023°33'0 0.0
2017-Nov-16 13:30N 37°58' E 023°33'0 0.0
2017-Nov-16 13:00N 37°58' E 023°33'0 0.0
2017-Nov-16 12:30N 37°58' E 023°33'0 0.0
2017-Nov-15 14:11N 37°57' E 023°33'0 0.7
2017-Nov-15 14:00N 37°58' E 023°33'0 0.3
2017-Nov-15 13:30N 37°58' E 023°33'0 0.2
2017-Nov-15 13:00N 37°58' E 023°33'0 0.1
2017-Nov-15 12:30N 37°58' E 023°33'0 0.0
2017-Nov-15 12:00N 37°58' E 023°33'0 0.0
2017-Nov-15 11:30N 37°58' E 023°33'0 0.0
2017-Nov-15 11:00N 37°58' E 023°33'2 4.3
2017-Nov-15 10:30N 37°57' E 023°36'0 0.1
2017-Nov-15 10:00N 37°57' E 023°36'0 0.3
2017-Nov-15 09:30N 37°57' E 023°36'0 0.9
2017-Nov-15 09:00N 37°57' E 023°35'2 3.3
2017-Nov-15 08:30N 37°58' E 023°33'0 0.1
2017-Nov-15 08:00N 37°58' E 023°33'0 0.4
2017-Nov-15 07:30N 37°58' E 023°33'0 0.0
2017-Nov-15 07:00N 37°58' E 023°33'0 0.0
2017-Nov-15 06:30N 37°58' E 023°33'0 0.0
2017-Nov-15 06:00N 37°58' E 023°33'0 0.0
2017-Nov-15 05:30N 37°58' E 023°33'0 0.0
2017-Nov-15 05:00N 37°58' E 023°33'0 0.0
2017-Nov-14 11:00N 37°58' E 023°33'0 0.0
2017-Nov-14 10:30N 37°58' E 023°33'1 1.6
2017-Nov-14 10:00N 37°57' E 023°34'1 1.5
2017-Nov-14 09:30N 37°57' E 023°35'2 3.3
2017-Nov-14 09:00N 37°56' E 023°35'2 4.8
2017-Nov-14 08:30N 37°57' E 023°33'0 0.4
2017-Nov-14 08:00N 37°58' E 023°33'0 0.0
2017-Nov-14 07:30N 37°58' E 023°33'0 0.0
2017-Nov-14 07:00N 37°58' E 023°33'0 0.0
2017-Nov-14 06:30N 37°58' E 023°33'3 5.4
2017-Nov-14 06:00N 37°57' E 023°37'1 2.5
2017-Nov-14 05:30N 37°56' E 023°38'0 0.0
2017-Nov-14 05:00N 37°56' E 023°38'1 2.9
2017-Nov-14 04:30N 37°57' E 023°36'1 1.1
2017-Nov-14 04:00N 37°57' E 023°36'0 0.0
2017-Nov-14 03:30N 37°57' E 023°36'0 0.0
2017-Nov-14 03:00N 37°57' E 023°36'0 0.0
2017-Nov-14 02:30N 37°57' E 023°36'0 0.0
2017-Nov-14 02:00N 37°57' E 023°36'0 0.0
2017-Nov-14 01:30N 37°57' E 023°36'0 0.0
2017-Nov-14 01:00N 37°57' E 023°36'0 0.0
2017-Nov-14 00:30N 37°57' E 023°36'0 0.0
2017-Nov-14 00:00N 37°57' E 023°36'0 0.0
2017-Nov-13 23:30N 37°57' E 023°36'0 0.0
2017-Nov-13 23:00N 37°57' E 023°36'0 0.0
2017-Nov-13 22:30N 37°57' E 023°36'0 0.0
2017-Nov-13 22:00N 37°57' E 023°36'  
2017-Nov-10 12:53N 37°57' E 023°34'1 2.5
2017-Nov-10 12:30N 37°57' E 023°35'2 3.4
2017-Nov-10 12:01N 37°55' E 023°36'2 3.5
2017-Nov-10 11:30N 37°56' E 023°34'0 0.2
2017-Nov-10 11:00N 37°56' E 023°34'0 0.0
2017-Nov-10 10:30N 37°56' E 023°34'0 0.0
2017-Nov-10 10:01N 37°56' E 023°34'0 0.0
2017-Nov-10 09:30N 37°56' E 023°34'0 0.0
2017-Nov-10 09:00N 37°56' E 023°34'0 0.0
2017-Nov-10 08:30N 37°56' E 023°34'0 0.0
2017-Nov-10 08:01N 37°56' E 023°34'0 0.0
2017-Nov-10 07:30N 37°56' E 023°34'0 0.0
2017-Nov-10 07:00N 37°56' E 023°34'0 0.0
2017-Nov-10 06:30N 37°56' E 023°34'0 0.0
2017-Nov-10 06:00N 37°56' E 023°34'0 0.0
2017-Nov-10 05:30N 37°56' E 023°34'0 0.0
2017-Nov-10 05:01N 37°56' E 023°34'0 0.0
2017-Nov-10 04:30N 37°56' E 023°34'0 0.0
2017-Nov-10 04:00N 37°56' E 023°34'0 0.0
2017-Nov-10 03:30N 37°56' E 023°34'0 0.0
2017-Nov-10 03:00N 37°56' E 023°34'0 0.0
2017-Nov-10 02:30N 37°56' E 023°34'0 0.0
2017-Nov-10 02:00N 37°56' E 023°34'0 0.0
2017-Nov-10 01:30N 37°56' E 023°34'0 0.0
2017-Nov-10 01:00N 37°56' E 023°34'0 0.0
2017-Nov-10 00:31N 37°56' E 023°34'0 0.0
2017-Nov-10 00:00N 37°56' E 023°34'0 0.0
2017-Nov-09 23:30N 37°56' E 023°34'0 0.0
2017-Nov-09 23:01N 37°56' E 023°34'0 0.0
2017-Nov-09 22:30N 37°56' E 023°34'0 0.0
2017-Nov-09 22:00N 37°56' E 023°34'0 0.0
2017-Nov-09 21:31N 37°56' E 023°34'0 0.0
2017-Nov-09 21:01N 37°56' E 023°34'0 0.0
2017-Nov-09 20:31N 37°56' E 023°34'0 0.0
2017-Nov-09 20:01N 37°56' E 023°34'0 0.0
2017-Nov-09 19:30N 37°56' E 023°34'0 0.0
2017-Nov-09 19:01N 37°56' E 023°34'0 0.0
2017-Nov-09 18:30N 37°56' E 023°34'0 0.0
2017-Nov-09 18:00N 37°56' E 023°34'0 0.0
2017-Nov-09 17:30N 37°56' E 023°34'0 0.0
2017-Nov-09 17:00N 37°56' E 023°34'0 0.0
2017-Nov-09 16:31N 37°56' E 023°34'0 0.0
2017-Nov-09 16:01N 37°56' E 023°34'0 0.0
2017-Nov-09 15:30N 37°56' E 023°34'0 0.0
2017-Nov-09 15:01N 37°56' E 023°34'0 0.0
2017-Nov-09 14:30N 37°56' E 023°34'0 0.0
2017-Nov-09 14:00N 37°56' E 023°34'0 0.0
2017-Nov-09 13:30N 37°56' E 023°34'0 0.0
2017-Nov-09 13:00N 37°56' E 023°34'0 0.0
2017-Nov-09 12:31N 37°56' E 023°34'0 0.0
2017-Nov-09 12:00N 37°56' E 023°34'0 0.0
2017-Nov-09 11:30N 37°56' E 023°34'0 0.0
2017-Nov-09 11:00N 37°56' E 023°34'0 0.1
2017-Nov-09 10:30N 37°56' E 023°34'1 2.9
2017-Nov-09 10:00N 37°58' E 023°34'0 0.0
2017-Nov-09 09:31N 37°58' E 023°34'3 5.5
2017-Nov-09 09:00N 38°00' E 023°33'2 4.1
2017-Nov-09 08:31N 38°01' E 023°36'0 0.0
2017-Nov-09 08:01N 38°01' E 023°36'0 0.0
2017-Nov-09 07:30N 38°01' E 023°36'4 7.7
2017-Nov-09 07:00N 37°58' E 023°33'1 1.9
2017-Nov-09 06:30N 37°57' E 023°34'0 0.3
2017-Nov-09 06:01N 37°58' E 023°34'3 6.9
2017-Nov-09 05:30N 37°56' E 023°38'0 0.5
2017-Nov-09 05:00N 37°56' E 023°38'1 1.6
2017-Nov-09 04:30N 37°56' E 023°37'3 5.2
2017-Nov-09 04:00N 37°57' E 023°34'1 1.0
2017-Nov-09 03:30N 37°58' E 023°34'0 0.0
2017-Nov-07 21:10N 37°58' E 023°34'1 3.9
2017-Nov-07 21:00N 37°58' E 023°33'2 3.8
2017-Nov-07 20:30N 37°57' E 023°35'0 0.7
2017-Nov-07 20:00N 37°57' E 023°35'1 2.6
2017-Nov-07 19:31N 37°58' E 023°34'0 0.0
2017-Nov-07 19:00N 37°58' E 023°34'0 0.0
2017-Nov-07 18:30N 37°58' E 023°34'0 0.0
2017-Nov-07 18:01N 37°58' E 023°34'0 0.0
2017-Nov-07 17:30N 37°58' E 023°34'0 0.0
2017-Nov-07 17:00N 37°58' E 023°34'0 0.0
2017-Nov-07 16:30N 37°58' E 023°34'0 0.0
2017-Nov-07 16:00N 37°58' E 023°34'0 0.0
2017-Nov-07 15:30N 37°58' E 023°34'0 0.0
2017-Nov-07 15:01N 37°58' E 023°34'1 2.2
2017-Nov-07 14:30N 37°57' E 023°35'1 2.3
2017-Nov-07 14:00N 37°58' E 023°34'0 0.0
2017-Nov-07 13:31N 37°58' E 023°34'0 0.0
2017-Nov-07 13:00N 37°58' E 023°34'0 0.5
2017-Nov-07 12:31N 37°58' E 023°33'0 0.0
2017-Nov-07 12:00N 37°58' E 023°33'0 0.0
2017-Nov-07 11:30N 37°58' E 023°33'0 0.0
2017-Nov-07 11:00N 37°58' E 023°33'1 1.3
2017-Nov-07 10:30N 37°57' E 023°34'2 3.6
2017-Nov-07 10:00N 37°55' E 023°35'1 2.4
2017-Nov-07 09:30N 37°54' E 023°34'0 0.8
2017-Nov-07 09:00N 37°54' E 023°34'1 2.0
2017-Nov-07 08:31N 37°55' E 023°34'3 5.3
2017-Nov-07 08:01N 37°58' E 023°34'0 0.0
2017-Nov-07 07:30N 37°58' E 023°34'0 0.0
2017-Nov-07 07:00N 37°58' E 023°34'0 0.0
2017-Nov-07 06:30N 37°58' E 023°34'  

Dump ship's entire track history